Time;durP1;ratioP1;P1;durP2;ratioP2;P2;SDS_P1;SDS_P2;PMS_P1;PMS_P2;Temp;Humidity;BMP_temperature;BMP_pressure;BME280_temperature;BME280_humidity;BME280_pressure;Samples;Min_cycle;Max_cycle;Signal;HPM_P1;HPM_P2
2022/03/20 00:01:04;;;;;;;29.20;18.17;;;;;;;;;;5036001;28;20414;-64
2022/03/20 00:03:31;;;;;;;25.10;17.00;;;;;;;;;;5036006;28;20415;-64
2022/03/20 00:05:57;;;;;;;25.87;16.93;;;;;;;;;;5035958;28;20402;-62
2022/03/20 00:08:24;;;;;;;24.57;16.23;;;;;;;;;;5035769;28;20470;-63
2022/03/20 00:10:52;;;;;;;29.03;16.90;;;;;;;;;;5035710;28;20839;-63
2022/03/20 00:13:20;;;;;;;34.13;17.30;;;;;;;;;;5035704;28;20869;-62
2022/03/20 00:15:46;;;;;;;30.10;17.77;;;;;;;;;;5035698;28;20407;-63
2022/03/20 00:18:14;;;;;;;29.60;17.47;;;;;;;;;;5035574;28;20426;-63
2022/03/20 00:20:41;;;;;;;25.13;16.10;;;;;;;;;;5035649;28;20396;-63
2022/03/20 00:23:09;;;;;;;29.43;18.73;;;;;;;;;;5035604;28;20417;-63
2022/03/20 00:25:37;;;;;;;29.23;17.70;;;;;;;;;;5035586;28;20425;-64
2022/03/20 00:28:04;;;;;;;28.47;17.50;;;;;;;;;;5035586;28;20411;-64
2022/03/20 00:30:30;;;;;;;29.70;19.60;;;;;;;;;;5035444;28;20809;-64
2022/03/20 00:32:56;;;;;;;30.73;17.23;;;;;;;;;;5035496;28;20494;-64
2022/03/20 00:35:22;;;;;;;26.57;17.97;;;;;;;;;;5035317;28;20526;-63
2022/03/20 00:37:48;;;;;;;30.57;19.27;;;;;;;;;;5035174;28;20551;-65
2022/03/20 00:40:14;;;;;;;25.60;17.67;;;;;;;;;;5034008;28;20815;-65
2022/03/20 00:42:40;;;;;;;31.17;17.80;;;;;;;;;;5035052;28;20447;-64
2022/03/20 00:45:06;;;;;;;28.87;18.00;;;;;;;;;;5035266;28;20398;-64
2022/03/20 00:47:32;;;;;;;32.90;17.27;;;;;;;;;;5035045;28;20412;-64
2022/03/20 00:49:58;;;;;;;30.63;17.30;;;;;;;;;;5035124;28;20424;-64
2022/03/20 00:52:24;;;;;;;29.30;18.50;;;;;;;;;;5035122;28;20438;-64
2022/03/20 00:54:50;;;;;;;31.57;20.03;;;;;;;;;;5035042;28;20416;-65
2022/03/20 00:57:17;;;;;;;29.63;19.07;;;;;;;;;;5034792;28;20521;-65
2022/03/20 00:59:43;;;;;;;29.87;18.63;;;;;;;;;;5034939;28;20406;-64
2022/03/20 01:02:09;;;;;;;29.30;18.73;;;;;;;;;;5033972;28;20500;-63
2022/03/20 01:04:36;;;;;;;31.17;19.30;;;;;;;;;;5034929;28;20422;-64
2022/03/20 01:07:02;;;;;;;29.30;17.77;;;;;;;;;;5034484;28;20448;-64
2022/03/20 01:09:29;;;;;;;28.63;19.40;;;;;;;;;;5034757;28;20498;-63
2022/03/20 01:11:55;;;;;;;28.30;18.13;;;;;;;;;;5034560;28;20411;-63
2022/03/20 01:14:22;;;;;;;30.10;17.93;;;;;;;;;;5034711;28;20501;-65
2022/03/20 01:16:49;;;;;;;26.70;17.60;;;;;;;;;;5034435;28;20482;-64
2022/03/20 01:19:15;;;;;;;27.80;18.50;;;;;;;;;;5034583;28;20409;-64
2022/03/20 01:21:42;;;;;;;28.67;18.40;;;;;;;;;;5034495;28;20465;-64
2022/03/20 01:24:08;;;;;;;30.13;18.13;;;;;;;;;;5034462;28;20395;-64
2022/03/20 01:26:35;;;;;;;28.60;19.00;;;;;;;;;;5034390;28;20419;-64
2022/03/20 01:29:02;;;;;;;29.33;18.83;;;;;;;;;;5034388;28;20398;-64
2022/03/20 01:31:28;;;;;;;29.50;18.10;;;;;;;;;;5034284;28;20429;-64
2022/03/20 01:33:55;;;;;;;30.73;17.93;;;;;;;;;;5034260;28;20408;-64
2022/03/20 01:36:21;;;;;;;26.60;16.63;;;;;;;;;;5034115;28;20456;-64
2022/03/20 01:38:47;;;;;;;27.60;18.30;;;;;;;;;;5034176;28;20750;-64
2022/03/20 01:41:14;;;;;;;36.63;18.07;;;;;;;;;;5032678;28;20871;-64
2022/03/20 01:43:48;;;;;;;29.33;17.23;;;;;;;;;;5034048;28;20779;-64
2022/03/20 01:46:15;;;;;;;25.90;18.10;;;;;;;;;;5034124;28;20502;-64
2022/03/20 01:48:41;;;;;;;27.90;17.17;;;;;;;;;;5033885;28;20934;-64
2022/03/20 01:51:07;;;;;;;27.43;18.23;;;;;;;;;;5032624;28;20925;-65
2022/03/20 01:53:33;;;;;;;25.97;16.40;;;;;;;;;;5033840;28;20419;-64
2022/03/20 01:55:59;;;;;;;24.63;16.60;;;;;;;;;;5033787;28;20403;-64
2022/03/20 01:58:25;;;;;;;28.40;17.13;;;;;;;;;;5033584;28;20426;-64
2022/03/20 02:00:51;;;;;;;29.50;18.97;;;;;;;;;;5033623;28;20419;-63
2022/03/20 02:03:19;;;;;;;30.80;19.20;;;;;;;;;;5033809;28;20490;-63
2022/03/20 02:05:45;;;;;;;32.40;19.30;;;;;;;;;;5033847;28;20406;-63
2022/03/20 02:08:15;;;;;;;32.50;17.97;;;;;;;;;;5033315;28;20851;-64
2022/03/20 02:10:43;;;;;;;28.47;19.03;;;;;;;;;;5033597;28;20415;-65
2022/03/20 02:13:09;;;;;;;28.90;18.00;;;;;;;;;;5033149;28;21102;-65
2022/03/20 02:15:39;;;;;;;28.50;18.30;;;;;;;;;;5033496;28;20424;-65
2022/03/20 02:18:07;;;;;;;29.93;18.57;;;;;;;;;;5033040;28;20975;-64
2022/03/20 02:20:33;;;;;;;26.73;17.90;;;;;;;;;;5033476;28;20414;-64
2022/03/20 02:23:00;;;;;;;25.53;17.37;;;;;;;;;;5033431;28;20434;-64
2022/03/20 02:25:26;;;;;;;25.90;18.00;;;;;;;;;;5033310;28;20407;-64
2022/03/20 02:27:52;;;;;;;29.00;17.50;;;;;;;;;;5033330;28;20409;-64
2022/03/20 02:30:18;;;;;;;30.90;17.70;;;;;;;;;;5033137;28;20423;-64
2022/03/20 02:32:45;;;;;;;26.97;17.20;;;;;;;;;;5033199;28;20908;-64
2022/03/20 02:35:14;;;;;;;28.47;18.30;;;;;;;;;;5033223;28;20431;-64
2022/03/20 02:37:41;;;;;;;26.47;17.33;;;;;;;;;;5033105;28;20470;-64
2022/03/20 02:40:07;;;;;;;27.30;17.77;;;;;;;;;;5031954;28;20482;-64
2022/03/20 02:42:35;;;;;;;25.57;17.87;;;;;;;;;;5033001;28;20445;-64
2022/03/20 02:45:06;;;;;;;26.97;16.80;;;;;;;;;;5033231;28;20414;-66
2022/03/20 02:47:43;;;;;;;26.30;16.80;;;;;;;;;;5033064;28;20465;-66
2022/03/20 02:50:18;;;;;;;27.17;16.80;;;;;;;;;;5033018;28;20429;-66
2022/03/20 02:52:58;;;;;;;27.00;16.70;;;;;;;;;;5033063;28;20465;-64
2022/03/20 02:55:44;;;;;;;27.77;17.13;;;;;;;;;;5031770;28;20414;-64
2022/03/20 02:58:12;;;;;;;24.90;17.23;;;;;;;;;;5032854;28;21116;-65
2022/03/20 03:00:40;;;;;;;31.07;18.40;;;;;;;;;;5032857;28;20448;-65
2022/03/20 03:03:08;;;;;;;26.07;17.23;;;;;;;;;;5032912;28;20498;-64
2022/03/20 03:05:34;;;;;;;22.70;16.23;;;;;;;;;;5032912;28;20511;-66
2022/03/20 03:10:56;;;;;;;26.20;17.13;;;;;;;;;;5032766;28;20402;-67
2022/03/20 03:13:26;;;;;;;26.17;16.40;;;;;;;;;;5032876;28;20484;-66
2022/03/20 03:15:53;;;;;;;28.57;17.40;;;;;;;;;;5032829;28;20558;-66
2022/03/20 03:18:20;;;;;;;27.67;16.80;;;;;;;;;;5032760;28;20405;-66
2022/03/20 03:20:47;;;;;;;28.87;16.20;;;;;;;;;;5032781;28;20428;-66
2022/03/20 03:23:13;;;;;;;23.17;15.90;;;;;;;;;;5031511;28;20410;-65
2022/03/20 03:25:40;;;;;;;24.70;16.67;;;;;;;;;;5033796;28;20888;-66
2022/03/20 03:28:06;;;;;;;22.77;16.47;;;;;;;;;;5036610;28;20889;-64
2022/03/20 03:30:32;;;;;;;28.20;18.20;;;;;;;;;;5036571;28;20410;-65
2022/03/20 03:32:58;;;;;;;26.63;17.00;;;;;;;;;;5036469;28;20419;-66
2022/03/20 03:35:44;;;;;;;24.97;15.57;;;;;;;;;;5035251;28;20597;-64
2022/03/20 03:38:11;;;;;;;25.73;17.17;;;;;;;;;;5036256;28;20790;-64
2022/03/20 03:40:37;;;;;;;23.67;16.30;;;;;;;;;;5036388;28;20411;-64
2022/03/20 03:43:03;;;;;;;26.83;16.60;;;;;;;;;;5036272;28;20442;-66
2022/03/20 03:45:30;;;;;;;23.90;17.00;;;;;;;;;;5036231;28;20476;-64
2022/03/20 03:47:56;;;;;;;24.70;16.43;;;;;;;;;;5036339;28;20761;-63
2022/03/20 03:50:22;;;;;;;24.50;16.40;;;;;;;;;;5036296;28;20408;-65
2022/03/20 03:52:48;;;;;;;25.33;16.37;;;;;;;;;;5036170;28;20418;-66
2022/03/20 03:55:14;;;;;;;26.43;16.07;;;;;;;;;;5036087;28;20418;-67
2022/03/20 03:57:44;;;;;;;23.33;15.00;;;;;;;;;;5035911;28;20468;-66
2022/03/20 04:00:10;;;;;;;25.57;16.50;;;;;;;;;;5034660;28;20537;-65
2022/03/20 04:02:36;;;;;;;29.10;17.90;;;;;;;;;;5036031;28;20449;-65
2022/03/20 04:05:02;;;;;;;27.00;17.40;;;;;;;;;;5035881;28;20802;-65
2022/03/20 04:07:28;;;;;;;25.07;16.87;;;;;;;;;;5035664;28;20473;-65
2022/03/20 04:09:54;;;;;;;27.63;16.70;;;;;;;;;;5035727;28;20408;-67
2022/03/20 04:12:20;;;;;;;25.20;16.93;;;;;;;;;;5035811;28;20433;-67
2022/03/20 04:14:48;;;;;;;28.90;16.83;;;;;;;;;;5035746;28;20490;-66
2022/03/20 04:17:14;;;;;;;28.27;16.70;;;;;;;;;;5034215;28;20489;-66
2022/03/20 04:19:41;;;;;;;25.13;16.90;;;;;;;;;;5035616;28;20394;-67
2022/03/20 04:22:07;;;;;;;25.77;17.20;;;;;;;;;;5035630;28;20415;-67
2022/03/20 04:24:36;;;;;;;26.00;16.90;;;;;;;;;;5035613;28;20910;-65
2022/03/20 04:27:02;;;;;;;27.73;17.10;;;;;;;;;;5035557;28;20514;-67
2022/03/20 04:29:27;;;;;;;24.90;16.83;;;;;;;;;;5035498;28;20409;-66
2022/03/20 04:31:54;;;;;;;25.50;16.37;;;;;;;;;;5035481;28;20422;-64
2022/03/20 04:34:21;;;;;;;32.00;17.60;;;;;;;;;;5035416;28;20422;-64
2022/03/20 04:36:48;;;;;;;26.50;17.93;;;;;;;;;;5035138;28;20506;-63
2022/03/20 04:39:14;;;;;;;26.17;16.30;;;;;;;;;;5035279;28;20477;-66
2022/03/20 04:41:41;;;;;;;27.50;17.33;;;;;;;;;;5035052;28;21005;-64
2022/03/20 04:44:12;;;;;;;27.67;17.90;;;;;;;;;;5035305;28;20466;-65
2022/03/20 04:46:38;;;;;;;30.90;18.10;;;;;;;;;;5035167;28;20416;-66
2022/03/20 05:00:03;;;;;;;34.10;17.47;;;;;;;;;;5034927;28;20402;-66
2022/03/20 05:02:29;;;;;;;26.10;16.43;;;;;;;;;;5034888;28;20412;-65
2022/03/20 05:04:55;;;;;;;29.80;17.83;;;;;;;;;;5033546;28;20754;-66
2022/03/20 05:07:21;;;;;;;28.90;16.57;;;;;;;;;;5034619;28;20564;-66
2022/03/20 05:15:16;;;;;;;26.10;18.10;;;;;;;;;;5034464;28;20752;-65
2022/03/20 05:17:42;;;;;;;29.53;16.93;;;;;;;;;;5034547;28;20478;-65
2022/03/20 05:20:08;;;;;;;26.93;17.47;;;;;;;;;;5034520;28;20765;-66
2022/03/20 05:22:38;;;;;;;24.43;17.00;;;;;;;;;;5034503;28;20500;-66
2022/03/20 05:25:07;;;;;;;26.27;17.57;;;;;;;;;;5034507;28;20406;-65
2022/03/20 05:27:33;;;;;;;27.00;17.77;;;;;;;;;;5034410;28;20455;-66
2022/03/20 05:29:59;;;;;;;28.23;19.10;;;;;;;;;;5034335;28;20430;-63
2022/03/20 05:32:26;;;;;;;31.03;18.33;;;;;;;;;;5034223;28;20809;-64
2022/03/20 05:34:52;;;;;;;28.27;18.03;;;;;;;;;;5034220;28;20410;-63
2022/03/20 05:37:18;;;;;;;30.77;18.40;;;;;;;;;;5034138;28;20536;-63
2022/03/20 05:39:45;;;;;;;26.70;17.93;;;;;;;;;;5034263;28;20413;-63
2022/03/20 05:42:13;;;;;;;27.50;17.73;;;;;;;;;;5034179;28;20476;-63
2022/03/20 05:44:40;;;;;;;24.93;16.90;;;;;;;;;;5034119;28;20527;-65
2022/03/20 05:47:06;;;;;;;27.90;17.43;;;;;;;;;;5034120;28;20411;-64
2022/03/20 05:49:33;;;;;;;29.80;18.10;;;;;;;;;;5033403;28;20405;-65
2022/03/20 05:52:00;;;;;;;30.00;19.07;;;;;;;;;;5033916;28;20438;-65
2022/03/20 05:54:26;;;;;;;34.03;20.40;;;;;;;;;;5033947;28;20498;-65
2022/03/20 05:59:37;;;;;;;28.33;18.37;;;;;;;;;;5033842;28;20461;-65
2022/03/20 06:02:03;;;;;;;32.10;20.80;;;;;;;;;;5033719;28;20399;-66
2022/03/20 06:04:31;;;;;;;35.50;19.27;;;;;;;;;;5033782;28;20407;-65
2022/03/20 06:06:58;;;;;;;30.17;18.70;;;;;;;;;;5033554;28;20453;-65
2022/03/20 06:09:24;;;;;;;35.20;19.50;;;;;;;;;;5033689;28;20487;-65
2022/03/20 06:11:50;;;;;;;29.87;18.70;;;;;;;;;;5033567;28;20437;-65
2022/03/20 06:14:17;;;;;;;30.80;19.90;;;;;;;;;;5033571;28;20479;-65
2022/03/20 06:16:48;;;;;;;31.13;20.17;;;;;;;;;;5033423;28;20454;-65
2022/03/20 06:19:14;;;;;;;32.40;20.10;;;;;;;;;;5033393;28;20427;-66
2022/03/20 06:21:40;;;;;;;30.93;18.73;;;;;;;;;;5033415;28;20833;-66
2022/03/20 06:24:06;;;;;;;28.07;19.50;;;;;;;;;;5033400;28;20461;-65
2022/03/20 06:26:34;;;;;;;35.20;19.80;;;;;;;;;;5033304;28;20442;-66
2022/03/20 06:29:00;;;;;;;32.17;17.70;;;;;;;;;;5033261;28;20417;-64
2022/03/20 06:31:26;;;;;;;33.60;19.17;;;;;;;;;;5033255;28;20493;-65
2022/03/20 06:33:54;;;;;;;31.27;19.67;;;;;;;;;;5033125;28;20488;-64
2022/03/20 06:36:20;;;;;;;31.27;19.40;;;;;;;;;;5032889;28;21139;-65
2022/03/20 06:38:46;;;;;;;32.93;20.17;;;;;;;;;;5033189;28;20500;-65
2022/03/20 06:41:11;;;;;;;32.97;20.53;;;;;;;;;;5033086;28;20422;-66
2022/03/20 06:43:38;;;;;;;32.87;19.53;;;;;;;;;;5033098;28;20866;-66
2022/03/20 06:46:05;;;;;;;33.13;19.70;;;;;;;;;;5033163;28;20418;-66
2022/03/20 06:48:31;;;;;;;32.70;20.60;;;;;;;;;;5033084;28;20438;-66
2022/03/20 06:50:58;;;;;;;29.60;20.63;;;;;;;;;;5033100;28;20472;-66
2022/03/20 06:53:24;;;;;;;30.77;20.03;;;;;;;;;;5033058;28;20411;-67
2022/03/20 06:55:50;;;;;;;37.53;22.43;;;;;;;;;;5032929;28;20897;-67
2022/03/20 06:58:17;;;;;;;34.80;21.10;;;;;;;;;;5032902;28;20470;-67
2022/03/20 07:00:43;;;;;;;33.47;20.93;;;;;;;;;;5034192;28;20509;-66
2022/03/20 07:03:09;;;;;;;34.40;21.57;;;;;;;;;;5037064;28;20414;-66
2022/03/20 07:05:36;;;;;;;35.50;21.33;;;;;;;;;;5037093;28;21235;-66
2022/03/20 07:08:03;;;;;;;37.83;21.73;;;;;;;;;;5036741;28;20480;-66
2022/03/20 07:10:29;;;;;;;34.17;21.40;;;;;;;;;;5037085;28;20405;-67
2022/03/20 07:15:40;;;;;;;32.60;19.73;;;;;;;;;;5037052;28;20497;-65
2022/03/20 07:18:07;;;;;;;33.17;21.03;;;;;;;;;;5036763;28;20465;-66
2022/03/20 07:20:33;;;;;;;30.83;21.27;;;;;;;;;;5036732;28;20413;-65
2022/03/20 07:23:00;;;;;;;32.03;20.97;;;;;;;;;;5036793;28;20771;-65
2022/03/20 07:30:56;;;;;;;30.33;19.87;;;;;;;;;;5036594;28;20421;-66
2022/03/20 07:33:23;;;;;;;38.37;22.60;;;;;;;;;;5036621;28;20410;-64
2022/03/20 07:35:49;;;;;;;65.70;44.20;;;;;;;;;;5036412;28;20521;-65
2022/03/20 07:38:16;;;;;;;43.83;28.27;;;;;;;;;;5035397;28;20524;-66
2022/03/20 07:40:41;;;;;;;488.43;233.93;;;;;;;;;;5036392;28;20468;-66
2022/03/20 07:43:08;;;;;;;110.57;52.93;;;;;;;;;;5036630;28;20410;-65
2022/03/20 07:45:34;;;;;;;69.90;38.00;;;;;;;;;;5036381;28;20445;-65
2022/03/20 07:48:00;;;;;;;653.50;312.93;;;;;;;;;;5036386;28;20410;-65
2022/03/20 07:50:27;;;;;;;328.73;136.37;;;;;;;;;;5036137;28;20440;-66
2022/03/20 07:52:53;;;;;;;189.97;85.00;;;;;;;;;;5036050;28;20434;-63
2022/03/20 07:55:19;;;;;;;100.07;45.30;;;;;;;;;;5035979;28;20453;-66
2022/03/20 07:57:45;;;;;;;81.30;38.07;;;;;;;;;;5034846;28;20466;-65
2022/03/20 08:00:11;;;;;;;56.03;29.80;;;;;;;;;;5035895;28;20414;-66
2022/03/20 08:02:38;;;;;;;40.17;24.43;;;;;;;;;;5035925;28;20429;-63
2022/03/20 08:05:04;;;;;;;37.53;23.37;;;;;;;;;;5036189;28;20415;-64
2022/03/20 08:07:36;;;;;;;37.13;23.63;;;;;;;;;;5035661;28;20905;-64
2022/03/20 08:10:09;;;;;;;33.13;21.03;;;;;;;;;;5035872;28;20410;-64
2022/03/20 08:12:35;;;;;;;33.50;20.83;;;;;;;;;;5033982;28;20976;-65
2022/03/20 08:15:02;;;;;;;30.23;21.17;;;;;;;;;;5035647;28;20423;-65
2022/03/20 08:17:29;;;;;;;33.33;21.70;;;;;;;;;;5035630;28;20499;-64
2022/03/20 08:19:55;;;;;;;31.27;20.70;;;;;;;;;;5035680;28;20414;-63
2022/03/20 08:22:21;;;;;;;30.40;21.53;;;;;;;;;;5035591;28;20413;-65
2022/03/20 08:24:48;;;;;;;30.20;20.73;;;;;;;;;;5035673;28;20406;-65
2022/03/20 08:27:14;;;;;;;32.50;22.00;;;;;;;;;;5035554;28;20413;-64
2022/03/20 08:29:40;;;;;;;34.33;22.80;;;;;;;;;;5035391;28;20889;-65
2022/03/20 08:32:07;;;;;;;32.00;21.70;;;;;;;;;;5035425;28;20906;-65
2022/03/20 08:34:35;;;;;;;31.03;21.93;;;;;;;;;;5035373;28;20403;-64
2022/03/20 08:37:01;;;;;;;32.90;22.00;;;;;;;;;;5035382;28;20825;-68
2022/03/20 08:39:27;;;;;;;41.10;22.30;;;;;;;;;;5035318;28;20406;-64
2022/03/20 08:41:53;;;;;;;32.67;21.47;;;;;;;;;;5035338;28;20484;-64
2022/03/20 08:44:19;;;;;;;32.93;20.90;;;;;;;;;;5034115;28;20418;-63
2022/03/20 08:46:45;;;;;;;34.00;22.10;;;;;;;;;;5035302;28;20403;-64
2022/03/20 08:49:11;;;;;;;35.07;21.63;;;;;;;;;;5035180;28;20449;-64
2022/03/20 08:51:40;;;;;;;32.73;21.50;;;;;;;;;;5035157;28;20951;-64
2022/03/20 08:54:08;;;;;;;35.53;22.60;;;;;;;;;;5035070;28;20399;-65
2022/03/20 08:56:34;;;;;;;34.03;21.77;;;;;;;;;;5034812;28;20462;-66
2022/03/20 08:59:00;;;;;;;30.60;20.93;;;;;;;;;;5034934;28;20414;-65
2022/03/20 09:01:26;;;;;;;37.33;21.60;;;;;;;;;;5034942;28;20534;-66
2022/03/20 09:03:53;;;;;;;32.90;21.90;;;;;;;;;;5033882;28;20433;-64
2022/03/20 09:06:20;;;;;;;30.93;21.10;;;;;;;;;;5034740;28;20426;-64
2022/03/20 09:08:46;;;;;;;30.63;20.40;;;;;;;;;;5034759;28;20898;-64
2022/03/20 09:11:12;;;;;;;31.33;20.10;;;;;;;;;;5034706;28;20446;-65
2022/03/20 09:13:38;;;;;;;27.67;18.40;;;;;;;;;;5034694;28;20452;-65
2022/03/20 09:19:07;;;;;;;31.60;19.00;;;;;;;;;;5035065;28;20512;-66
2022/03/20 09:21:37;;;;;;;30.40;19.13;;;;;;;;;;5034781;28;20447;-64
2022/03/20 09:24:04;;;;;;;27.60;19.10;;;;;;;;;;5033627;28;20433;-64
2022/03/20 09:26:31;;;;;;;26.23;18.30;;;;;;;;;;5034504;28;20410;-64
2022/03/20 09:28:57;;;;;;;29.30;19.43;;;;;;;;;;5034517;28;20415;-66
2022/03/20 09:31:24;;;;;;;28.57;18.57;;;;;;;;;;5034400;28;20415;-66
2022/03/20 09:33:51;;;;;;;30.77;19.57;;;;;;;;;;5034405;28;20906;-64
2022/03/20 09:36:17;;;;;;;27.43;17.80;;;;;;;;;;5034107;28;20437;-66
2022/03/20 09:38:43;;;;;;;28.30;18.70;;;;;;;;;;5034357;28;20436;-68
2022/03/20 09:41:09;;;;;;;26.60;18.07;;;;;;;;;;5034033;28;20521;-66
2022/03/20 09:43:37;;;;;;;31.40;18.33;;;;;;;;;;5034169;28;20422;-65
2022/03/20 09:46:03;;;;;;;27.40;18.53;;;;;;;;;;5034144;28;20882;-66
2022/03/20 09:48:30;;;;;;;27.20;17.30;;;;;;;;;;5034008;28;20976;-65
2022/03/20 09:50:58;;;;;;;28.57;17.73;;;;;;;;;;5033981;28;20403;-66
2022/03/20 09:53:24;;;;;;;22.80;16.63;;;;;;;;;;5033936;28;20470;-66
2022/03/20 09:55:50;;;;;;;29.00;17.13;;;;;;;;;;5033840;28;20441;-66
2022/03/20 09:58:16;;;;;;;26.17;17.13;;;;;;;;;;5033844;28;20811;-66
2022/03/20 10:00:42;;;;;;;26.17;17.37;;;;;;;;;;5033711;28;20410;-67
2022/03/20 10:03:18;;;;;;;24.73;17.23;;;;;;;;;;5033838;28;20407;-67
2022/03/20 10:05:44;;;;;;;25.33;16.20;;;;;;;;;;5033762;28;20432;-67
2022/03/20 10:08:17;;;;;;;27.57;18.00;;;;;;;;;;5033537;28;20454;-66
2022/03/20 10:10:44;;;;;;;27.37;18.10;;;;;;;;;;5033538;28;20483;-66
2022/03/20 10:13:14;;;;;;;31.03;16.63;;;;;;;;;;5033633;28;20410;-66
2022/03/20 10:15:41;;;;;;;27.97;18.67;;;;;;;;;;5033502;28;20422;-66
2022/03/20 10:18:10;;;;;;;22.93;15.37;;;;;;;;;;5033563;28;20477;-65
2022/03/20 10:20:46;;;;;;;26.40;16.60;;;;;;;;;;5033441;28;20902;-64
2022/03/20 10:23:31;;;;;;;26.30;17.93;;;;;;;;;;5032227;28;20425;-65
2022/03/20 10:25:58;;;;;;;22.67;16.80;;;;;;;;;;5033499;28;20443;-64
2022/03/20 10:28:24;;;;;;;24.30;16.27;;;;;;;;;;5033466;28;20398;-65
2022/03/20 10:30:57;;;;;;;30.07;17.77;;;;;;;;;;5033462;28;20399;-65
2022/03/20 10:33:23;;;;;;;26.40;17.20;;;;;;;;;;5033384;28;20403;-65
2022/03/20 10:36:07;;;;;;;25.23;16.77;;;;;;;;;;5033026;28;20437;-65
2022/03/20 10:38:37;;;;;;;27.67;17.90;;;;;;;;;;5033158;28;20478;-64
2022/03/20 10:41:23;;;;;;;23.40;15.93;;;;;;;;;;5033180;28;20431;-65
2022/03/20 10:43:49;;;;;;;23.87;18.17;;;;;;;;;;5033142;28;20443;-64
2022/03/20 10:46:20;;;;;;;22.50;16.00;;;;;;;;;;5033118;28;20505;-66
2022/03/20 10:48:48;;;;;;;24.90;16.57;;;;;;;;;;5033143;28;20410;-66
2022/03/20 10:51:14;;;;;;;21.33;16.27;;;;;;;;;;5033013;28;20472;-65
2022/03/20 10:53:54;;;;;;;25.73;16.40;;;;;;;;;;5033093;28;20401;-65
2022/03/20 10:56:20;;;;;;;31.83;16.70;;;;;;;;;;5032806;28;20406;-65
2022/03/20 10:58:46;;;;;;;25.87;15.90;;;;;;;;;;5032967;28;20422;-66
2022/03/20 11:01:13;;;;;;;23.07;17.53;;;;;;;;;;5033014;28;20402;-65
2022/03/20 11:03:40;;;;;;;25.30;16.57;;;;;;;;;;5033025;28;20411;-65
2022/03/20 11:06:07;;;;;;;24.63;15.50;;;;;;;;;;5032851;28;20524;-65
2022/03/20 11:08:33;;;;;;;30.63;20.97;;;;;;;;;;5032993;28;20425;-66
2022/03/20 11:10:59;;;;;;;28.23;16.90;;;;;;;;;;5032628;28;20520;-66
2022/03/20 11:13:27;;;;;;;25.73;15.87;;;;;;;;;;5032850;28;20501;-65
2022/03/20 11:15:54;;;;;;;26.40;16.97;;;;;;;;;;5032635;28;20489;-64
2022/03/20 11:18:21;;;;;;;20.97;15.60;;;;;;;;;;5032768;28;20540;-65
2022/03/20 11:20:49;;;;;;;27.53;16.00;;;;;;;;;;5031668;28;20492;-63
2022/03/20 11:23:17;;;;;;;21.60;15.97;;;;;;;;;;5032759;28;20411;-66
2022/03/20 11:25:45;;;;;;;22.23;15.77;;;;;;;;;;5032870;28;20449;-66
2022/03/20 11:28:11;;;;;;;20.40;15.10;;;;;;;;;;5032798;28;20510;-65
2022/03/20 11:30:38;;;;;;;23.83;15.50;;;;;;;;;;5032761;28;20501;-65
2022/03/20 11:33:04;;;;;;;26.67;16.07;;;;;;;;;;5032653;28;20434;-64
2022/03/20 11:35:31;;;;;;;21.93;15.17;;;;;;;;;;5032543;28;20410;-65
2022/03/20 11:38:12;;;;;;;24.83;15.57;;;;;;;;;;5032568;28;20524;-66
2022/03/20 11:40:41;;;;;;;22.90;14.93;;;;;;;;;;5032680;28;20395;-66
2022/03/20 11:43:19;;;;;;;22.30;14.50;;;;;;;;;;5032571;28;20414;-64
2022/03/20 11:46:05;;;;;;;21.70;14.53;;;;;;;;;;5032713;28;20484;-64
2022/03/20 11:48:31;;;;;;;21.33;13.87;;;;;;;;;;5036119;28;20456;-64
2022/03/20 11:50:57;;;;;;;25.70;14.67;;;;;;;;;;5036334;28;20417;-65
2022/03/20 11:53:27;;;;;;;20.70;14.00;;;;;;;;;;5036239;28;20905;-65
2022/03/20 11:55:53;;;;;;;22.70;13.83;;;;;;;;;;5036140;28;20406;-64
2022/03/20 11:58:24;;;;;;;27.43;15.10;;;;;;;;;;5036246;28;20823;-64
2022/03/20 12:01:05;;;;;;;25.50;14.37;;;;;;;;;;5036120;28;20489;-64
2022/03/20 12:03:40;;;;;;;27.13;13.80;;;;;;;;;;5036158;28;20418;-64
2022/03/20 12:06:20;;;;;;;21.77;14.03;;;;;;;;;;5035907;28;20471;-64
2022/03/20 12:08:46;;;;;;;20.13;13.40;;;;;;;;;;5035914;28;20468;-64
2022/03/20 12:11:12;;;;;;;22.33;14.23;;;;;;;;;;5035888;28;20525;-63
2022/03/20 12:13:57;;;;;;;25.70;12.90;;;;;;;;;;5036005;28;20757;-64
2022/03/20 12:16:50;;;;;;;20.77;13.40;;;;;;;;;;5035798;28;20410;-65
2022/03/20 12:19:20;;;;;;;17.70;12.10;;;;;;;;;;5034141;28;20418;-64
2022/03/20 12:22:00;;;;;;;19.33;12.60;;;;;;;;;;5035807;28;20433;-66
2022/03/20 12:24:45;;;;;;;21.00;12.63;;;;;;;;;;5034483;28;20562;-66
2022/03/20 12:27:23;;;;;;;19.50;12.70;;;;;;;;;;5034309;28;20422;-65
2022/03/20 12:30:08;;;;;;;25.57;13.53;;;;;;;;;;5035544;28;20410;-65
2022/03/20 12:32:49;;;;;;;21.87;13.40;;;;;;;;;;5035639;28;20414;-65
2022/03/20 12:35:22;;;;;;;19.73;12.83;;;;;;;;;;5034106;28;20406;-65
2022/03/20 12:37:48;;;;;;;17.33;12.03;;;;;;;;;;5035364;28;20498;-65
2022/03/20 12:40:26;;;;;;;21.90;13.13;;;;;;;;;;5034143;28;20450;-64
2022/03/20 12:43:10;;;;;;;16.93;11.97;;;;;;;;;;5035276;28;20426;-65
2022/03/20 12:45:43;;;;;;;15.83;11.40;;;;;;;;;;5035333;28;20415;-67
2022/03/20 12:48:11;;;;;;;16.67;11.83;;;;;;;;;;5035250;28;20406;-66
2022/03/20 12:50:39;;;;;;;15.80;11.60;;;;;;;;;;5035112;28;20418;-66
2022/03/20 12:53:16;;;;;;;15.00;11.23;;;;;;;;;;5035138;28;20457;-66
2022/03/20 12:55:42;;;;;;;16.13;11.40;;;;;;;;;;5035051;28;20398;-66
2022/03/20 12:58:14;;;;;;;19.57;11.93;;;;;;;;;;5035008;28;20465;-65
2022/03/20 13:00:40;;;;;;;21.70;12.73;;;;;;;;;;5033928;28;20866;-65
2022/03/20 13:03:07;;;;;;;22.30;12.23;;;;;;;;;;5034926;28;20450;-64
2022/03/20 13:05:38;;;;;;;19.00;12.73;;;;;;;;;;5034874;28;20415;-64
2022/03/20 13:08:04;;;;;;;23.40;12.20;;;;;;;;;;5034606;28;20462;-66
2022/03/20 13:10:34;;;;;;;18.33;11.77;;;;;;;;;;5034797;28;20460;-64
2022/03/20 13:13:02;;;;;;;22.43;12.10;;;;;;;;;;5034897;28;20403;-63
2022/03/20 13:15:32;;;;;;;14.03;10.20;;;;;;;;;;5034706;28;20537;-64
2022/03/20 13:17:59;;;;;;;18.60;10.80;;;;;;;;;;5034633;28;20462;-65
2022/03/20 13:20:26;;;;;;;17.30;12.10;;;;;;;;;;5034611;28;20799;-65
2022/03/20 13:22:53;;;;;;;15.87;10.33;;;;;;;;;;5034537;28;20415;-65
2022/03/20 13:25:23;;;;;;;17.07;10.23;;;;;;;;;;5034601;28;20406;-65
2022/03/20 13:27:50;;;;;;;16.20;10.53;;;;;;;;;;5034497;28;20473;-65
2022/03/20 13:30:16;;;;;;;14.87;10.87;;;;;;;;;;5034398;28;20453;-66
2022/03/20 13:32:43;;;;;;;20.43;11.47;;;;;;;;;;5034466;28;20445;-66
2022/03/20 13:35:10;;;;;;;21.53;12.00;;;;;;;;;;5034248;28;20482;-65
2022/03/20 13:37:36;;;;;;;20.63;13.33;;;;;;;;;;5034147;28;20568;-66
2022/03/20 13:40:02;;;;;;;17.60;13.33;;;;;;;;;;5034218;28;20484;-65
2022/03/20 13:42:30;;;;;;;15.47;11.93;;;;;;;;;;5034117;28;20449;-65
2022/03/20 13:44:56;;;;;;;21.80;13.67;;;;;;;;;;5034067;28;20886;-65
2022/03/20 13:47:22;;;;;;;19.77;12.90;;;;;;;;;;5034092;28;20407;-66
2022/03/20 13:49:49;;;;;;;14.70;11.20;;;;;;;;;;5033986;28;20434;-68
2022/03/20 13:55:07;;;;;;;21.17;13.70;;;;;;;;;;5033867;28;20444;-65
2022/03/20 13:57:34;;;;;;;16.37;11.80;;;;;;;;;;5033793;28;20473;-65
2022/03/20 14:00:09;;;;;;;18.13;13.33;;;;;;;;;;5033848;28;20890;-66
2022/03/20 14:02:42;;;;;;;18.37;13.20;;;;;;;;;;5033855;28;20401;-65
2022/03/20 14:05:21;;;;;;;17.73;12.83;;;;;;;;;;5034050;28;20788;-65
2022/03/20 14:07:47;;;;;;;18.67;12.73;;;;;;;;;;5033592;28;20550;-64
2022/03/20 14:10:23;;;;;;;21.03;12.43;;;;;;;;;;5033282;28;20403;-64
2022/03/20 14:12:49;;;;;;;18.43;12.43;;;;;;;;;;5033481;28;20417;-66
2022/03/20 14:15:15;;;;;;;16.07;10.97;;;;;;;;;;5033583;28;20788;-66
2022/03/20 14:17:46;;;;;;;20.57;12.93;;;;;;;;;;5033491;28;20494;-66
2022/03/20 14:20:22;;;;;;;15.83;11.27;;;;;;;;;;5033407;28;20419;-65
2022/03/20 14:22:57;;;;;;;20.03;11.00;;;;;;;;;;5033663;28;20468;-66
2022/03/20 14:25:33;;;;;;;18.50;10.93;;;;;;;;;;5033543;28;20448;-66
2022/03/20 14:28:06;;;;;;;16.70;10.97;;;;;;;;;;5033408;28;20398;-64
2022/03/20 14:41:33;;;;;;;18.17;11.93;;;;;;;;;;5033440;28;20460;-65
2022/03/20 14:44:05;;;;;;;18.30;11.43;;;;;;;;;;5033202;28;20842;-65
2022/03/20 14:46:31;;;;;;;17.20;11.53;;;;;;;;;;5033138;28;20402;-66
2022/03/20 14:48:57;;;;;;;21.43;12.43;;;;;;;;;;5033108;28;20410;-65
2022/03/20 14:51:24;;;;;;;18.37;12.90;;;;;;;;;;5033147;28;20448;-65
2022/03/20 14:53:50;;;;;;;15.37;12.33;;;;;;;;;;5033099;28;20858;-64
2022/03/20 14:56:16;;;;;;;21.73;13.33;;;;;;;;;;5033038;28;20453;-67
2022/03/20 14:58:45;;;;;;;15.63;12.33;;;;;;;;;;5032508;28;20508;-67
2022/03/20 15:01:11;;;;;;;17.20;10.93;;;;;;;;;;5033027;28;20402;-66
2022/03/20 15:03:37;;;;;;;16.60;11.20;;;;;;;;;;5032823;28;20422;-67
2022/03/20 15:06:03;;;;;;;18.10;12.37;;;;;;;;;;5033085;28;20482;-66
2022/03/20 15:11:26;;;;;;;20.23;12.90;;;;;;;;;;5032770;28;20835;-65